Time;durP1;ratioP1;P1;durP2;ratioP2;P2;SDS_P1;SDS_P2;PMS_P1;PMS_P2;Temp;Humidity;BMP_temperature;BMP_pressure;BME280_temperature;BME280_humidity;BME280_pressure;Samples;Min_cycle;Max_cycle;Signal;HPM_P1;HPM_P2
2022/11/06 00:00:32;;;;;;;;;;;6.30;99.90;;;;;;4374013;32;20532;-74
2022/11/06 00:02:58;;;;;;;;;;;6.30;99.90;;;;;;4370917;32;20422;-72
2022/11/06 00:06:55;;;;;;;;;;;6.30;99.90;;;;;;4362366;32;19954;-72
2022/11/06 00:08:09;;;;;;;;;;;6.20;99.90;;;;;;4358040;32;19970;-72
2022/11/06 00:10:34;;;;;;;;;;;6.20;99.90;;;;;;4374247;32;19992;-71
2022/11/06 00:13:01;;;;;;;;;;;6.00;99.90;;;;;;4377483;32;21096;-71
2022/11/06 00:15:27;;;;;;;;;;;6.00;99.90;;;;;;4371075;32;19946;-73
2022/11/06 00:17:52;;;;;;;;;;;5.90;99.90;;;;;;4370486;32;19986;-70
2022/11/06 00:20:18;;;;;;;;;;;6.10;99.90;;;;;;4374770;32;19947;-71
2022/11/06 00:22:43;;;;;;;;;;;6.00;99.90;;;;;;4372963;32;19966;-72
2022/11/06 00:25:09;;;;;;;;;;;5.90;99.90;;;;;;4373051;32;20394;-73
2022/11/06 00:27:36;;;;;;;;;;;5.90;99.90;;;;;;4373780;32;19954;-71
2022/11/06 00:30:02;;;;;;;;;;;5.90;99.90;;;;;;4374341;32;19951;-71
2022/11/06 00:32:27;;;;;;;;;;;5.90;99.90;;;;;;4372292;32;19956;-73
2022/11/06 00:34:53;;;;;;;;;;;5.70;99.90;;;;;;4354174;32;19966;-72
2022/11/06 00:37:18;;;;;;;;;;;5.60;99.90;;;;;;4363872;32;19956;-72
2022/11/06 00:39:44;;;;;;;;;;;5.60;99.90;;;;;;4374288;32;20398;-71
2022/11/06 00:42:09;;;;;;;;;;;5.50;99.90;;;;;;4371626;32;19984;-72
2022/11/06 00:44:34;;;;;;;;;;;5.60;99.90;;;;;;4371418;32;19974;-72
2022/11/06 00:47:00;;;;;;;;;;;5.70;99.90;;;;;;4372174;32;19946;-72
2022/11/06 00:49:26;;;;;;;;;;;5.70;99.90;;;;;;4374921;32;19953;-72
2022/11/06 00:51:51;;;;;;;;;;;5.90;99.90;;;;;;4375253;32;19974;-72
2022/11/06 00:54:17;;;;;;;;;;;5.90;99.90;;;;;;4375690;32;19946;-71
2022/11/06 00:56:42;;;;;;;;;;;5.90;99.90;;;;;;4376806;32;20030;-72
2022/11/06 00:59:10;;;;;;;;;;;5.80;99.90;;;;;;4374473;32;19985;-71
2022/11/06 01:01:36;;;;;;;;;;;5.70;99.90;;;;;;4375155;32;19964;-71
2022/11/06 01:04:04;;;;;;;;;;;5.60;99.90;;;;;;4360437;32;19953;-73
2022/11/06 01:06:30;;;;;;;;;;;5.70;99.90;;;;;;4359112;32;19942;-73
2022/11/06 01:08:56;;;;;;;;;;;5.80;99.90;;;;;;4372224;32;19987;-72
2022/11/06 01:11:30;;;;;;;;;;;5.80;99.90;;;;;;4374938;32;20331;-71
2022/11/06 01:13:56;;;;;;;;;;;5.70;99.90;;;;;;4371862;32;20383;-72
2022/11/06 01:16:23;;;;;;;;;;;5.70;99.90;;;;;;4372387;32;19977;-71
2022/11/06 01:18:49;;;;;;;;;;;5.80;99.90;;;;;;4371518;32;19954;-72
2022/11/06 01:21:16;;;;;;;;;;;6.00;99.90;;;;;;4372454;32;19960;-71
2022/11/06 01:23:42;;;;;;;;;;;5.90;99.90;;;;;;4375132;32;19950;-71
2022/11/06 01:26:08;;;;;;;;;;;5.90;99.90;;;;;;4373862;32;20020;-72
2022/11/06 01:28:33;;;;;;;;;;;5.80;99.90;;;;;;4370346;32;19968;-71
2022/11/06 01:31:03;;;;;;;;;;;5.70;99.90;;;;;;4370835;32;19973;-70
2022/11/06 01:33:29;;;;;;;;;;;5.60;99.90;;;;;;4365017;32;20013;-72
2022/11/06 01:35:54;;;;;;;;;;;5.50;99.90;;;;;;4355030;32;20073;-72
2022/11/06 01:38:19;;;;;;;;;;;5.50;99.90;;;;;;4369593;32;19964;-72
2022/11/06 01:40:46;;;;;;;;;;;5.50;99.90;;;;;;4372845;32;19946;-73
2022/11/06 01:43:14;;;;;;;;;;;5.60;99.90;;;;;;4370498;32;19938;-71
2022/11/06 01:45:41;;;;;;;;;;;5.60;99.90;;;;;;4374337;32;19961;-71
2022/11/06 01:48:07;;;;;;;;;;;5.60;99.90;;;;;;4369402;32;20662;-71
2022/11/06 01:50:32;;;;;;;;;;;5.50;99.90;;;;;;4374485;32;19968;-72
2022/11/06 01:53:01;;;;;;;;;;;5.40;99.90;;;;;;4374340;32;19957;-73
2022/11/06 01:55:29;;;;;;;;;;;5.40;99.90;;;;;;4371634;32;20371;-73
2022/11/06 01:57:55;;;;;;;;;;;5.40;99.90;;;;;;4370087;32;19949;-73
2022/11/06 02:00:21;;;;;;;;;;;5.40;99.90;;;;;;4371282;32;19958;-73
2022/11/06 02:02:47;;;;;;;;;;;5.40;99.90;;;;;;4369031;32;20298;-74
2022/11/06 02:05:12;;;;;;;;;;;5.30;99.90;;;;;;4358699;32;19942;-74
2022/11/06 02:07:39;;;;;;;;;;;5.30;99.90;;;;;;4363544;32;19970;-74
2022/11/06 02:10:05;;;;;;;;;;;5.30;99.90;;;;;;4370635;32;19952;-75
2022/11/06 02:12:50;;;;;;;;;;;5.30;99.90;;;;;;4372374;32;20397;-73
2022/11/06 02:15:22;;;;;;;;;;;5.40;99.90;;;;;;4363577;32;19942;-72
2022/11/06 02:17:54;;;;;;;;;;;5.40;99.90;;;;;;4371696;32;19965;-73
2022/11/06 02:20:26;;;;;;;;;;;5.40;99.90;;;;;;4370551;32;19974;-73
2022/11/06 02:23:11;;;;;;;;;;;5.50;99.90;;;;;;4373550;32;20016;-72
2022/11/06 02:25:38;;;;;;;;;;;5.50;99.90;;;;;;4362883;32;19950;-73
2022/11/06 02:28:08;;;;;;;;;;;5.50;99.90;;;;;;4376656;32;19961;-72
2022/11/06 02:30:35;;;;;;;;;;;5.50;99.90;;;;;;4373475;32;20013;-72
2022/11/06 02:33:05;;;;;;;;;;;5.50;99.90;;;;;;4366590;32;20430;-73
2022/11/06 02:35:37;;;;;;;;;;;5.50;99.90;;;;;;4355467;32;20682;-74
2022/11/06 02:38:06;;;;;;;;;;;5.40;99.90;;;;;;4368520;32;19954;-72
2022/11/06 02:40:33;;;;;;;;;;;5.50;99.90;;;;;;4378478;32;19949;-73
2022/11/06 02:43:02;;;;;;;;;;;5.60;99.90;;;;;;4374196;32;19941;-73
2022/11/06 02:45:30;;;;;;;;;;;5.60;99.90;;;;;;4374924;32;19950;-72
2022/11/06 02:47:57;;;;;;;;;;;5.60;99.90;;;;;;4376217;32;20016;-73
2022/11/06 02:50:25;;;;;;;;;;;5.70;99.90;;;;;;4374132;32;20438;-74
2022/11/06 02:52:53;;;;;;;;;;;5.80;99.90;;;;;;4378187;32;19955;-72
2022/11/06 02:55:22;;;;;;;;;;;5.80;99.90;;;;;;4374574;32;19953;-73
2022/11/06 02:57:50;;;;;;;;;;;5.80;99.90;;;;;;4373291;32;19974;-72
2022/11/06 03:00:16;;;;;;;;;;;5.80;99.90;;;;;;4375294;32;19957;-72
2022/11/06 03:02:46;;;;;;;;;;;5.70;99.90;;;;;;4373265;32;19966;-73
2022/11/06 03:05:18;;;;;;;;;;;5.60;99.90;;;;;;4359120;32;20439;-73
2022/11/06 03:07:51;;;;;;;;;;;5.80;99.90;;;;;;4366531;32;20543;-72
2022/11/06 03:10:16;;;;;;;;;;;5.70;99.90;;;;;;4374624;32;19976;-73
2022/11/06 03:12:48;;;;;;;;;;;5.70;99.90;;;;;;4374808;32;20401;-73
2022/11/06 03:15:19;;;;;;;;;;;5.80;99.90;;;;;;4372524;32;19953;-73
2022/11/06 03:17:50;;;;;;;;;;;5.80;99.90;;;;;;4376332;32;20417;-73
2022/11/06 03:20:20;;;;;;;;;;;5.80;99.90;;;;;;4376993;32;19988;-73
2022/11/06 03:22:50;;;;;;;;;;;5.90;99.90;;;;;;4375657;32;20382;-73
2022/11/06 03:25:19;;;;;;;;;;;6.00;99.90;;;;;;4373209;32;19938;-73
2022/11/06 03:27:50;;;;;;;;;;;6.00;99.90;;;;;;4373650;32;19977;-74
2022/11/06 03:30:15;;;;;;;;;;;6.10;99.90;;;;;;4370287;32;19954;-72
2022/11/06 03:32:47;;;;;;;;;;;6.00;99.90;;;;;;4373082;32;20020;-74
2022/11/06 03:35:18;;;;;;;;;;;6.00;99.90;;;;;;4359001;32;19988;-74
2022/11/06 03:37:50;;;;;;;;;;;6.00;99.90;;;;;;4364902;32;20020;-73
2022/11/06 03:40:18;;;;;;;;;;;6.00;99.90;;;;;;4372764;32;19969;-72
2022/11/06 03:42:44;;;;;;;;;;;6.00;99.90;;;;;;4370722;32;19957;-73
2022/11/06 03:45:12;;;;;;;;;;;6.00;99.90;;;;;;4374562;32;20013;-72
2022/11/06 03:47:40;;;;;;;;;;;5.90;99.90;;;;;;4372823;32;19992;-73
2022/11/06 03:50:09;;;;;;;;;;;5.80;99.90;;;;;;4365200;32;20311;-72
2022/11/06 03:52:37;;;;;;;;;;;5.80;99.90;;;;;;4373595;32;20005;-73
2022/11/06 03:55:03;;;;;;;;;;;5.80;99.90;;;;;;4376763;32;19946;-72
2022/11/06 03:57:32;;;;;;;;;;;5.90;99.90;;;;;;4373576;32;19968;-72
2022/11/06 03:59:59;;;;;;;;;;;5.80;99.90;;;;;;4374210;32;19981;-74
2022/11/06 04:02:27;;;;;;;;;;;5.80;99.90;;;;;;4372441;32;19957;-74
2022/11/06 04:04:55;;;;;;;;;;;5.80;99.90;;;;;;4356112;32;19965;-74
2022/11/06 04:07:24;;;;;;;;;;;5.70;99.90;;;;;;4366164;32;19958;-73
2022/11/06 04:13:56;;;;;;;;;;;5.80;99.90;;;;;;4367954;32;19951;-73
2022/11/06 04:15:29;;;;;;;;;;;5.80;99.90;;;;;;4364227;32;19997;-72
2022/11/06 04:17:54;;;;;;;;;;;5.90;99.90;;;;;;4373570;32;19949;-71
2022/11/06 04:21:21;;;;;;;;;;;5.80;99.90;;;;;;4372174;32;19970;-72
2022/11/06 04:23:10;;;;;;;;;;;5.80;99.90;;;;;;4354496;32;20004;-72
2022/11/06 04:26:50;;;;;;;;;;;5.70;99.90;;;;;;4375064;32;20524;-74
2022/11/06 04:28:42;;;;;;;;;;;5.60;99.90;;;;;;4362084;32;20031;-73
2022/11/06 04:31:11;;;;;;;;;;;5.60;99.90;;;;;;4371786;32;19950;-73
2022/11/06 04:33:56;;;;;;;;;;;5.70;99.90;;;;;;4364056;32;20585;-74
2022/11/06 04:36:41;;;;;;;;;;;5.70;99.90;;;;;;4344216;32;20374;-73
2022/11/06 04:39:12;;;;;;;;;;;5.60;99.90;;;;;;4361525;32;20352;-73
2022/11/06 04:41:45;;;;;;;;;;;5.50;99.90;;;;;;4372981;32;20385;-72
2022/11/06 04:44:18;;;;;;;;;;;5.60;99.90;;;;;;4375760;32;20000;-73
2022/11/06 04:46:47;;;;;;;;;;;5.60;99.90;;;;;;4367483;32;20092;-74
2022/11/06 04:49:13;;;;;;;;;;;5.40;99.90;;;;;;4367582;32;19961;-73
2022/11/06 04:51:39;;;;;;;;;;;5.40;99.90;;;;;;4374118;32;19946;-73
2022/11/06 04:54:06;;;;;;;;;;;5.40;99.90;;;;;;4374865;32;20362;-72
2022/11/06 04:56:32;;;;;;;;;;;5.40;99.90;;;;;;4373095;32;19945;-73
2022/11/06 04:58:58;;;;;;;;;;;5.40;99.90;;;;;;4371764;32;19988;-73
2022/11/06 05:01:24;;;;;;;;;;;5.40;99.90;;;;;;4374243;32;19973;-73
2022/11/06 05:03:50;;;;;;;;;;;5.30;99.90;;;;;;4359987;32;19958;-74
2022/11/06 05:06:15;;;;;;;;;;;5.30;99.90;;;;;;4354912;32;19950;-72
2022/11/06 05:08:41;;;;;;;;;;;5.30;99.90;;;;;;4365436;32;20008;-72
2022/11/06 05:11:06;;;;;;;;;;;5.20;99.90;;;;;;4376751;32;19950;-73
2022/11/06 05:13:32;;;;;;;;;;;5.20;99.90;;;;;;4373447;32;19969;-73
2022/11/06 05:15:58;;;;;;;;;;;5.40;99.90;;;;;;4373263;32;20172;-73
2022/11/06 05:18:24;;;;;;;;;;;5.40;99.90;;;;;;4372028;32;20026;-73
2022/11/06 05:22:56;;;;;;;;;;;5.40;99.90;;;;;;4375148;32;19946;-73
2022/11/06 05:23:37;;;;;;;;;;;5.40;99.90;;;;;;4359734;32;20075;-72
2022/11/06 05:26:03;;;;;;;;;;;5.40;99.90;;;;;;4371536;32;19943;-72
2022/11/06 05:28:28;;;;;;;;;;;5.50;99.90;;;;;;4371065;32;19960;-73
2022/11/06 05:30:54;;;;;;;;;;;5.60;99.90;;;;;;4372103;32;20299;-72
2022/11/06 05:33:19;;;;;;;;;;;5.60;99.90;;;;;;4359447;32;19973;-74
2022/11/06 05:35:44;;;;;;;;;;;5.60;99.90;;;;;;4351057;32;20012;-73
2022/11/06 05:38:10;;;;;;;;;;;5.40;99.90;;;;;;4369364;32;19965;-74
2022/11/06 05:40:35;;;;;;;;;;;5.30;99.90;;;;;;4375149;32;19976;-72
2022/11/06 05:43:01;;;;;;;;;;;5.10;99.90;;;;;;4368677;32;20347;-73
2022/11/06 05:45:26;;;;;;;;;;;5.10;99.90;;;;;;4372493;32;19945;-72
2022/11/06 05:47:51;;;;;;;;;;;5.10;99.90;;;;;;4370318;32;19950;-74
2022/11/06 05:50:17;;;;;;;;;;;5.00;99.90;;;;;;4376201;32;20291;-73
2022/11/06 05:52:42;;;;;;;;;;;5.00;99.90;;;;;;4372777;32;20350;-73
2022/11/06 05:55:08;;;;;;;;;;;5.00;99.90;;;;;;4372783;32;20337;-73
2022/11/06 05:57:34;;;;;;;;;;;5.00;99.90;;;;;;4372829;32;19941;-72
2022/11/06 05:59:59;;;;;;;;;;;5.00;99.90;;;;;;4371217;32;20096;-73
2022/11/06 06:02:24;;;;;;;;;;;4.90;99.90;;;;;;4375873;32;20024;-73
2022/11/06 06:04:50;;;;;;;;;;;4.80;99.90;;;;;;4358366;32;19970;-74
2022/11/06 06:07:15;;;;;;;;;;;4.90;99.90;;;;;;4363941;32;19953;-73
2022/11/06 06:09:41;;;;;;;;;;;5.00;99.90;;;;;;4374370;32;19980;-74
2022/11/06 06:12:07;;;;;;;;;;;5.10;99.90;;;;;;4373510;32;19942;-72
2022/11/06 06:14:33;;;;;;;;;;;5.20;99.90;;;;;;4374470;32;20013;-73
2022/11/06 06:16:58;;;;;;;;;;;5.30;99.90;;;;;;4372766;32;20093;-72
2022/11/06 06:19:23;;;;;;;;;;;5.30;99.90;;;;;;4372056;32;20011;-73
2022/11/06 06:21:49;;;;;;;;;;;5.30;99.90;;;;;;4373261;32;19950;-72
2022/11/06 06:24:14;;;;;;;;;;;5.20;99.90;;;;;;4376581;32;19992;-72
2022/11/06 06:26:40;;;;;;;;;;;5.10;99.90;;;;;;4372662;32;19960;-73
2022/11/06 06:29:05;;;;;;;;;;;5.00;99.90;;;;;;4373327;32;20415;-72
2022/11/06 06:31:30;;;;;;;;;;;5.00;99.90;;;;;;4367232;32;21149;-72
2022/11/06 06:33:56;;;;;;;;;;;5.00;99.90;;;;;;4362296;32;19950;-73
2022/11/06 06:36:21;;;;;;;;;;;5.10;99.90;;;;;;4361024;32;19957;-73
2022/11/06 06:38:47;;;;;;;;;;;5.20;99.90;;;;;;4373486;32;19973;-73
2022/11/06 06:41:12;;;;;;;;;;;5.30;99.90;;;;;;4373881;32;20009;-72
2022/11/06 06:43:38;;;;;;;;;;;5.30;99.90;;;;;;4373276;32;20037;-73
2022/11/06 06:46:04;;;;;;;;;;;5.30;99.90;;;;;;4372599;32;19981;-72
2022/11/06 06:48:30;;;;;;;;;;;5.40;99.90;;;;;;4375419;32;19977;-73
2022/11/06 06:50:56;;;;;;;;;;;5.50;99.90;;;;;;4376283;32;20425;-74
2022/11/06 06:53:21;;;;;;;;;;;5.40;99.90;;;;;;4375943;32;20379;-73
2022/11/06 06:55:47;;;;;;;;;;;5.50;99.90;;;;;;4374271;32;20013;-73
2022/11/06 06:58:12;;;;;;;;;;;5.60;99.90;;;;;;4368955;32;19949;-72
2022/11/06 07:00:37;;;;;;;;;;;5.60;99.90;;;;;;4373995;32;19954;-73
2022/11/06 07:03:03;;;;;;;;;;;5.60;99.90;;;;;;4369827;32;19942;-73
2022/11/06 07:05:28;;;;;;;;;;;5.70;99.90;;;;;;4357962;32;20360;-73
2022/11/06 07:07:54;;;;;;;;;;;5.80;99.90;;;;;;4367451;32;20006;-72
2022/11/06 07:10:19;;;;;;;;;;;5.80;99.90;;;;;;4378839;32;20671;-73
2022/11/06 07:12:45;;;;;;;;;;;5.90;99.90;;;;;;4374213;32;19956;-72
2022/11/06 07:15:10;;;;;;;;;;;6.10;99.90;;;;;;4368857;32;20040;-72
2022/11/06 07:17:35;;;;;;;;;;;6.10;99.90;;;;;;4369270;32;19950;-72
2022/11/06 07:20:01;;;;;;;;;;;6.20;99.90;;;;;;4369375;32;20007;-73
2022/11/06 07:22:27;;;;;;;;;;;6.30;99.90;;;;;;4373645;32;20007;-72
2022/11/06 07:24:52;;;;;;;;;;;6.50;99.90;;;;;;4376287;32;19970;-73
2022/11/06 07:27:17;;;;;;;;;;;6.50;99.90;;;;;;4377885;32;19972;-73
2022/11/06 07:29:43;;;;;;;;;;;6.50;99.90;;;;;;4376588;32;20287;-72
2022/11/06 07:32:08;;;;;;;;;;;6.50;99.90;;;;;;4375135;32;19975;-72
2022/11/06 07:34:34;;;;;;;;;;;6.50;99.90;;;;;;4361146;32;19964;-73
2022/11/06 07:36:59;;;;;;;;;;;6.60;99.90;;;;;;4362704;32;19970;-73
2022/11/06 07:39:24;;;;;;;;;;;6.70;99.90;;;;;;4374037;32;19970;-72
2022/11/06 07:41:50;;;;;;;;;;;6.70;99.90;;;;;;4375451;32;19961;-73
2022/11/06 07:44:15;;;;;;;;;;;6.80;99.90;;;;;;4375021;32;19956;-74
2022/11/06 07:46:41;;;;;;;;;;;6.90;99.90;;;;;;4375299;32;19970;-72
2022/11/06 07:49:06;;;;;;;;;;;7.00;99.90;;;;;;4374680;32;19946;-73
2022/11/06 07:51:31;;;;;;;;;;;7.10;99.90;;;;;;4374893;32;19946;-72
2022/11/06 07:53:57;;;;;;;;;;;7.10;99.90;;;;;;4374770;32;20022;-74
2022/11/06 07:56:22;;;;;;;;;;;7.20;99.90;;;;;;4371134;32;19970;-74
2022/11/06 07:58:48;;;;;;;;;;;7.30;99.90;;;;;;4374131;32;20351;-73
2022/11/06 08:01:15;;;;;;;;;;;7.30;99.90;;;;;;4372197;32;20069;-73
2022/11/06 08:03:40;;;;;;;;;;;7.40;99.90;;;;;;4362327;32;20003;-72
2022/11/06 08:06:05;;;;;;;;;;;7.50;99.90;;;;;;4359710;32;19946;-73
2022/11/06 08:08:31;;;;;;;;;;;7.60;99.90;;;;;;4372488;32;19946;-72
2022/11/06 08:11:00;;;;;;;;;;;7.60;99.90;;;;;;4374880;32;19970;-72
2022/11/06 08:13:25;;;;;;;;;;;7.70;99.90;;;;;;4371870;32;19960;-72
2022/11/06 08:15:51;;;;;;;;;;;7.70;99.90;;;;;;4377505;32;19950;-74
2022/11/06 08:18:16;;;;;;;;;;;7.70;99.90;;;;;;4373033;32;19968;-72
2022/11/06 08:20:42;;;;;;;;;;;7.70;99.90;;;;;;4374693;32;20382;-72
2022/11/06 08:23:09;;;;;;;;;;;7.80;99.90;;;;;;4372869;32;19970;-72
2022/11/06 08:25:34;;;;;;;;;;;7.80;99.90;;;;;;4375062;32;19957;-74
2022/11/06 08:28:01;;;;;;;;;;;7.80;99.90;;;;;;4373379;32;20457;-73
2022/11/06 08:30:27;;;;;;;;;;;7.90;99.90;;;;;;4373784;32;20808;-73
2022/11/06 08:32:53;;;;;;;;;;;7.90;99.90;;;;;;4362137;32;97408;-73
2022/11/06 08:35:18;;;;;;;;;;;8.00;99.90;;;;;;4354552;32;19981;-73
2022/11/06 08:37:44;;;;;;;;;;;8.10;99.90;;;;;;4362764;32;20438;-74
2022/11/06 08:40:09;;;;;;;;;;;8.20;99.90;;;;;;4373364;32;19953;-73
2022/11/06 08:42:35;;;;;;;;;;;8.30;99.90;;;;;;4371874;32;20052;-74
2022/11/06 08:45:00;;;;;;;;;;;8.40;99.90;;;;;;4373169;32;19968;-74
2022/11/06 08:47:25;;;;;;;;;;;8.40;99.90;;;;;;4373569;32;19954;-73
2022/11/06 08:49:51;;;;;;;;;;;8.50;99.90;;;;;;4374387;32;19966;-73
2022/11/06 08:52:16;;;;;;;;;;;8.60;99.90;;;;;;4373473;32;20425;-73
2022/11/06 08:54:42;;;;;;;;;;;8.70;99.90;;;;;;4376929;32;19961;-72
2022/11/06 08:57:07;;;;;;;;;;;8.80;99.90;;;;;;4372418;32;19976;-74
2022/11/06 08:59:32;;;;;;;;;;;8.90;99.90;;;;;;4375942;32;20350;-72
2022/11/06 09:01:59;;;;;;;;;;;9.00;99.90;;;;;;4370691;32;19953;-73
2022/11/06 09:04:25;;;;;;;;;;;9.00;99.90;;;;;;4356407;32;19950;-74
2022/11/06 09:06:50;;;;;;;;;;;9.10;99.90;;;;;;4359508;32;19967;-72
2022/11/06 09:09:16;;;;;;;;;;;9.30;99.90;;;;;;4373950;32;19950;-72
2022/11/06 09:11:41;;;;;;;;;;;9.40;99.90;;;;;;4374455;32;20021;-74
2022/11/06 09:14:07;;;;;;;;;;;9.60;99.90;;;;;;4373009;32;20347;-73
2022/11/06 09:16:32;;;;;;;;;;;9.60;99.90;;;;;;4372621;32;20073;-72
2022/11/06 09:18:57;;;;;;;;;;;9.80;99.90;;;;;;4374593;32;20460;-72
2022/11/06 09:21:23;;;;;;;;;;;10.00;99.90;;;;;;4375938;32;19963;-73
2022/11/06 09:23:48;;;;;;;;;;;9.90;99.90;;;;;;4370887;32;19986;-73
2022/11/06 09:26:14;;;;;;;;;;;10.00;99.90;;;;;;4369343;32;19939;-72
2022/11/06 09:28:39;;;;;;;;;;;10.00;99.90;;;;;;4368797;32;19953;-73
2022/11/06 09:31:05;;;;;;;;;;;10.10;99.90;;;;;;4372754;32;19941;-72
2022/11/06 09:33:30;;;;;;;;;;;10.20;99.90;;;;;;4363054;32;19985;-75
2022/11/06 09:35:57;;;;;;;;;;;10.30;99.90;;;;;;4359264;32;19945;-73
2022/11/06 09:38:22;;;;;;;;;;;10.40;99.90;;;;;;4369876;32;19970;-73
2022/11/06 09:40:49;;;;;;;;;;;10.30;99.90;;;;;;4375541;32;19950;-73
2022/11/06 09:43:31;;;;;;;;;;;10.30;99.90;;;;;;4378190;32;20061;-74
2022/11/06 09:45:59;;;;;;;;;;;10.30;99.90;;;;;;4376169;32;19954;-74
2022/11/06 09:48:25;;;;;;;;;;;10.40;99.90;;;;;;4375438;32;19998;-73
2022/11/06 09:51:11;;;;;;;;;;;10.60;99.90;;;;;;4374100;32;20033;-72
2022/11/06 09:53:40;;;;;;;;;;;10.60;99.90;;;;;;4362196;32;19992;-73
2022/11/06 09:56:09;;;;;;;;;;;10.80;99.90;;;;;;4374812;32;19951;-73
2022/11/06 09:58:36;;;;;;;;;;;10.80;99.90;;;;;;4379840;32;19960;-73
2022/11/06 10:01:05;;;;;;;;;;;10.70;99.90;;;;;;4375142;32;19969;-73
2022/11/06 10:03:38;;;;;;;;;;;10.60;99.90;;;;;;4362748;32;19949;-75
2022/11/06 10:06:04;;;;;;;;;;;10.50;99.90;;;;;;4360597;32;19971;-74
2022/11/06 10:08:29;;;;;;;;;;;10.60;99.90;;;;;;4375566;32;19946;-72
2022/11/06 10:11:04;;;;;;;;;;;10.70;99.90;;;;;;4372494;32;19999;-72
2022/11/06 10:13:36;;;;;;;;;;;10.70;99.90;;;;;;4375060;32;20359;-73
2022/11/06 10:16:15;;;;;;;;;;;10.80;99.90;;;;;;4373454;32;20007;-73
2022/11/06 10:18:45;;;;;;;;;;;10.80;99.90;;;;;;4372197;32;20028;-73
2022/11/06 10:21:12;;;;;;;;;;;10.80;99.90;;;;;;4375282;32;19960;-74
2022/11/06 10:23:58;;;;;;;;;;;11.00;99.90;;;;;;4372439;32;19977;-74
2022/11/06 10:26:31;;;;;;;;;;;11.00;99.90;;;;;;4364321;32;19978;-74
2022/11/06 10:29:06;;;;;;;;;;;11.00;99.90;;;;;;4374739;32;20384;-73
2022/11/06 10:31:36;;;;;;;;;;;11.00;99.90;;;;;;4376082;32;19970;-73
2022/11/06 10:34:03;;;;;;;;;;;11.00;99.90;;;;;;4362174;32;20025;-74
2022/11/06 10:36:35;;;;;;;;;;;10.80;99.90;;;;;;4359083;32;19970;-73
2022/11/06 10:39:02;;;;;;;;;;;10.90;99.90;;;;;;4371801;32;19954;-74
2022/11/06 10:41:30;;;;;;;;;;;10.80;99.90;;;;;;4371271;32;19953;-73
2022/11/06 10:43:59;;;;;;;;;;;10.70;99.90;;;;;;4372359;32;19969;-73
2022/11/06 10:46:43;;;;;;;;;;;10.80;99.90;;;;;;4375161;32;19969;-73
2022/11/06 10:49:28;;;;;;;;;;;10.90;99.90;;;;;;4373928;32;19949;-73
2022/11/06 10:52:05;;;;;;;;;;;11.10;99.90;;;;;;4363337;32;19978;-73
2022/11/06 10:54:32;;;;;;;;;;;11.10;99.90;;;;;;4373745;32;20403;-72
2022/11/06 10:57:17;;;;;;;;;;;11.10;99.90;;;;;;4374931;32;20346;-73
2022/11/06 10:59:43;;;;;;;;;;;11.30;99.90;;;;;;4365044;32;19972;-73
2022/11/06 11:02:19;;;;;;;;;;;11.30;99.90;;;;;;4372269;32;20009;-73
2022/11/06 11:04:44;;;;;;;;;;;11.40;99.90;;;;;;4353028;32;20732;-73
2022/11/06 11:07:13;;;;;;;;;;;11.60;99.90;;;;;;4360438;32;20001;-73
2022/11/06 11:09:39;;;;;;;;;;;11.60;99.90;;;;;;4374883;32;19999;-73
2022/11/06 11:12:18;;;;;;;;;;;11.60;99.90;;;;;;4371816;32;19954;-72
2022/11/06 11:14:43;;;;;;;;;;;11.90;99.90;;;;;;4372179;32;19969;-72
2022/11/06 11:17:08;;;;;;;;;;;12.00;99.90;;;;;;4370069;32;20637;-73
2022/11/06 11:19:35;;;;;;;;;;;12.30;99.90;;;;;;4373220;32;19953;-72
2022/11/06 11:22:02;;;;;;;;;;;12.50;99.90;;;;;;4372091;32;19966;-73
2022/11/06 11:24:28;;;;;;;;;;;12.60;99.90;;;;;;4372611;32;19962;-73
2022/11/06 11:26:59;;;;;;;;;;;12.90;99.90;;;;;;4362384;32;20034;-73
2022/11/06 11:29:27;;;;;;;;;;;13.00;99.90;;;;;;4372262;32;20462;-73
2022/11/06 11:31:55;;;;;;;;;;;13.10;99.90;;;;;;4370532;32;19956;-73
2022/11/06 11:34:22;;;;;;;;;;;13.00;99.90;;;;;;4357678;32;20703;-74
2022/11/06 11:36:50;;;;;;;;;;;13.20;99.90;;;;;;4356748;32;20769;-73
2022/11/06 11:39:16;;;;;;;;;;;13.50;99.90;;;;;;4367805;32;19962;-73
2022/11/06 11:41:43;;;;;;;;;;;13.80;99.90;;;;;;4372059;32;19965;-76
2022/11/06 11:47:55;;;;;;;;;;;13.90;99.90;;;;;;4310781;33;19943;-77
2022/11/06 11:50:49;;;;;;;;;;;;;;;;;;;;;
2022/11/06 11:53:27;;;;;;;;;;;14.70;99.90;;;;;;4316286;33;19968;-77
2022/11/06 11:55:55;;;;;;;;;;;14.30;99.90;;;;;;4349901;32;19953;-77
2022/11/06 11:58:25;;;;;;;;;;;14.40;99.90;;;;;;4371527;32;19966;-77
2022/11/06 12:01:10;;;;;;;;;;;14.80;99.90;;;;;;4361434;32;20359;-77
2022/11/06 12:04:12;;;;;;;;;;;14.80;99.90;;;;;;4367956;32;20003;-78
2022/11/06 12:06:59;;;;;;;;;;;14.70;99.90;;;;;;4361534;32;19943;-78
2022/11/06 12:09:25;;;;;;;;;;;15.00;99.90;;;;;;4377581;32;19949;-78
2022/11/06 12:12:03;;;;;;;;;;;14.90;99.90;;;;;;4363503;32;19950;-77
2022/11/06 12:14:51;;;;;;;;;;;15.10;99.90;;;;;;4374274;32;19942;-77
2022/11/06 12:17:59;;;;;;;;;;;15.00;99.90;;;;;;4373109;32;19977;-78
2022/11/06 12:20:36;;;;;;;;;;;15.20;99.90;;;;;;4306659;33;20302;-77
2022/11/06 12:23:05;;;;;;;;;;;15.40;99.90;;;;;;4372744;32;20480;-77
2022/11/06 12:25:50;;;;;;;;;;;15.90;99.90;;;;;;4376489;32;19996;-77
2022/11/06 12:28:22;;;;;;;;;;;16.00;99.90;;;;;;4373718;32;20395;-78
2022/11/06 12:30:59;;;;;;;;;;;15.80;99.90;;;;;;4373513;32;20422;-78
2022/11/06 12:33:48;;;;;;;;;;;15.70;99.90;;;;;;4365740;32;20134;-78
2022/11/06 12:36:22;;;;;;;;;;;15.50;99.90;;;;;;4361112;32;19950;-78
2022/11/06 12:39:08;;;;;;;;;;;15.50;99.90;;;;;;4371197;32;20395;-76
2022/11/06 12:41:35;;;;;;;;;;;15.40;99.90;;;;;;4363037;32;19947;-77
2022/11/06 12:44:20;;;;;;;;;;;15.10;99.90;;;;;;4371362;32;19957;-78
2022/11/06 12:47:22;;;;;;;;;;;;;;;;;;;;;
2022/11/06 12:50:09;;;;;;;;;;;14.60;99.90;;;;;;4372395;32;20372;-79
2022/11/06 12:52:59;;;;;;;;;;;14.50;99.90;;;;;;4375535;32;20049;-79
2022/11/06 12:55:33;;;;;;;;;;;14.60;99.90;;;;;;4378476;32;20013;-78
2022/11/06 12:58:28;;;;;;;;;;;14.60;99.90;;;;;;4362942;32;19989;-78
2022/11/06 13:01:52;;;;;;;;;;;14.20;99.90;;;;;;4379188;32;20015;-78
2022/11/06 13:04:29;;;;;;;;;;;14.00;99.90;;;;;;4352037;32;19970;-78
2022/11/06 13:07:26;;;;;;;;;;;13.80;99.90;;;;;;4357522;32;20248;-78
2022/11/06 13:10:05;;;;;;;;;;;13.60;99.90;;;;;;4368855;32;19982;-78
2022/11/06 13:12:38;;;;;;;;;;;13.50;99.90;;;;;;4373772;32;19950;-78
2022/11/06 13:15:23;;;;;;;;;;;13.30;99.90;;;;;;4375353;32;19950;-78
2022/11/06 13:18:50;;;;;;;;;;;13.30;99.90;;;;;;4365631;32;20029;-77
2022/11/06 13:21:02;;;;;;;;;;;13.30;99.90;;;;;;4364962;32;19950;-78
2022/11/06 13:23:33;;;;;;;;;;;13.20;99.90;;;;;;4375031;32;19963;-79
2022/11/06 13:26:00;;;;;;;;;;;13.20;99.90;;;;;;4363994;32;20374;-77
2022/11/06 13:28:48;;;;;;;;;;;;;;;;;;;;;
2022/11/06 13:31:55;;;;;;;;;;;13.10;99.90;;;;;;4372200;32;19950;-78
2022/11/06 13:37:37;;;;;;;;;;;13.00;99.90;;;;;;4335240;32;19949;-78
2022/11/06 13:40:28;;;;;;;;;;;13.00;99.90;;;;;;4375935;32;19950;-78
2022/11/06 13:43:15;;;;;;;;;;;13.00;99.90;;;;;;4378418;32;19953;-77
2022/11/06 13:45:50;;;;;;;;;;;12.90;99.90;;;;;;4367586;32;20052;-78
2022/11/06 13:48:22;;;;;;;;;;;12.80;99.90;;;;;;4377724;32;20000;-78
2022/11/06 13:51:01;;;;;;;;;;;12.80;99.90;;;;;;4373803;32;19949;-78
2022/11/06 13:53:49;;;;;;;;;;;12.70;99.90;;;;;;4378285;32;19950;-78
2022/11/06 13:56:35;;;;;;;;;;;12.70;99.90;;;;;;4374562;32;19950;-77
2022/11/06 13:59:21;;;;;;;;;;;12.60;99.90;;;;;;4364794;32;19989;-78
2022/11/06 14:02:22;;;;;;;;;;;12.60;99.90;;;;;;4379720;32;19957;-77
2022/11/06 14:04:58;;;;;;;;;;;12.50;99.90;;;;;;4364645;32;20074;-79
2022/11/06 14:07:31;;;;;;;;;;;12.50;99.90;;;;;;4360952;32;20398;-77
2022/11/06 14:10:32;;;;;;;;;;;12.40;99.90;;;;;;4373248;32;19992;-77
2022/11/06 14:13:01;;;;;;;;;;;12.40;99.90;;;;;;4379094;32;20000;-78
2022/11/06 14:15:31;;;;;;;;;;;12.30;99.90;;;;;;4374921;32;20052;-78
2022/11/06 14:17:58;;;;;;;;;;;12.40;99.90;;;;;;4376806;32;20160;-78
2022/11/06 14:20:40;;;;;;;;;;;;;;;;;;;;;
2022/11/06 14:23:38;;;;;;;;;;;12.40;99.90;;;;;;4358235;32;20028;-79
2022/11/06 14:33:08;;;;;;;;;;;12.80;99.90;;;;;;4301870;33;19958;-80
2022/11/06 14:35:51;;;;;;;;;;;12.70;99.90;;;;;;4291770;33;20477;-78
2022/11/06 14:38:47;;;;;;;;;;;12.50;99.90;;;;;;4329663;33;19955;-77
2022/11/06 14:44:43;;;;;;;;;;;12.30;99.90;;;;;;4312285;33;19958;-78
2022/11/06 14:56:42;;;;;;;;;;;11.80;99.90;;;;;;4318061;33;20034;-77
2022/11/06 14:59:26;;;;;;;;;;;11.70;99.90;;;;;;4325112;33;19948;-77
2022/11/06 15:04:46;;;;;;;;;;;11.60;99.90;;;;;;4325811;33;20443;-80
2022/11/06 15:07:32;;;;;;;;;;;11.60;99.90;;;;;;4343131;32;19954;-72
2022/11/06 15:09:57;;;;;;;;;;;11.50;99.90;;;;;;4363827;32;19989;-73
2022/11/06 15:12:43;;;;;;;;;;;11.50;99.90;;;;;;4372666;32;20359;-74
2022/11/06 15:15:15;;;;;;;;;;;11.40;99.90;;;;;;4365052;32;20062;-75
2022/11/06 15:17:41;;;;;;;;;;;11.40;99.90;;;;;;4372877;32;19995;-73
2022/11/06 15:20:12;;;;;;;;;;;11.30;99.90;;;;;;4373304;32;19946;-71